Roosevelt, Texas
Current Conditions -  °F | °C
As of 11:51 PM on Friday 28 Nov 2014 (Local Time) from KJCT Reporting Station
Clear Clear  
Wind Chill: 50°   Ceiling: Unl
Heat Index: 50°   Visibility: 10mi
Dew Point: 43°   Wind: 5mph
Humidity: 77%   Direction: 250°WSW
Pressure: 30.07"   Gusts: NA
Location:  30.49°N, 100.05°W
Report Text: KJCT 290551Z AUTO 25004KT 10SM CLR 10/06 A3007 RMK AO2 SLP160 T01000061 10172 20078 402170028 58010
Loading
Personal Weather Stations






























Interactive Weather Map New forecast layout! Learn more

10-Day Weather Forecast

Advertisements
Track Severe Weather on mobile